createdAt,value
2022-07-27T00:02:49.725Z,39.9
2022-07-27T00:08:09.763Z,39.9
2022-07-27T00:13:28.481Z,39.8
2022-07-27T00:18:46.636Z,39.5
2022-07-27T00:24:05.355Z,39.5
2022-07-27T00:29:23.798Z,39.2
2022-07-27T00:34:42.516Z,39.8
2022-07-27T00:40:00.957Z,38.2
2022-07-27T00:45:19.115Z,37.4
2022-07-27T00:50:37.278Z,37.6
2022-07-27T00:55:55.997Z,37.7
2022-07-27T01:01:14.444Z,36.7
2022-07-27T01:06:33.161Z,37.9
2022-07-27T01:11:51.045Z,36.4
2022-07-27T01:17:09.207Z,35.7
2022-07-27T01:22:27.659Z,35.7
2022-07-27T01:27:45.830Z,35.5
2022-07-27T01:33:04.259Z,35.9
2022-07-27T01:38:22.719Z,37.2
2022-07-27T01:43:41.428Z,36.9
2022-07-27T01:48:59.851Z,37
2022-07-27T01:54:18.014Z,36.7
2022-07-27T01:59:36.177Z,37.2
2022-07-27T02:04:54.459Z,36.2
2022-07-27T02:10:12.863Z,36.2
2022-07-27T02:15:45.190Z,37.3
2022-07-27T02:21:03.340Z,36.7
2022-07-27T02:26:22.062Z,37.5
2022-07-27T02:31:40.515Z,37.3
2022-07-27T02:36:59.234Z,36.6
2022-07-27T02:42:17.945Z,37.5
2022-07-27T02:47:36.665Z,36.8
2022-07-27T02:52:54.835Z,37
2022-07-27T02:58:12.995Z,38.2
2022-07-27T03:03:37.841Z,37.7
2022-07-27T03:08:56.286Z,37.8
2022-07-27T03:14:15.951Z,38.2
2022-07-27T03:19:34.673Z,38.4
2022-07-27T03:24:52.560Z,38.7
2022-07-27T03:30:10.719Z,37.9
2022-07-27T03:35:29.169Z,39
2022-07-27T03:40:47.613Z,39.2
2022-07-27T03:46:06.192Z,39.2
2022-07-27T03:51:24.351Z,38.7
2022-07-27T03:56:42.517Z,38.5
2022-07-27T04:02:00.928Z,39.2
2022-07-27T04:07:19.361Z,38.1
2022-07-27T04:12:37.811Z,39
2022-07-27T04:17:58.720Z,38.9
2022-07-27T04:23:17.495Z,38.4
2022-07-27T04:28:35.938Z,38.6
2022-07-27T04:33:54.380Z,39.2
2022-07-27T04:39:13.766Z,38.3
2022-07-27T04:44:32.402Z,39.2
2022-07-27T04:49:51.122Z,39.4
2022-07-27T04:55:09.285Z,38.7
2022-07-27T05:00:27.731Z,39
2022-07-27T05:05:51.302Z,39.4
2022-07-27T05:11:09.739Z,39.9
2022-07-27T05:16:29.692Z,39.8
2022-07-27T05:21:48.391Z,39.1
2022-07-27T05:27:06.844Z,39.3
2022-07-27T05:32:25.273Z,39.4
2022-07-27T05:37:43.992Z,39.6
2022-07-27T05:43:02.157Z,39
2022-07-27T05:48:20.601Z,39.2
2022-07-27T05:53:39.317Z,39.9
2022-07-27T05:58:57.479Z,39.6
2022-07-27T06:04:15.942Z,39.1
2022-07-27T06:09:34.667Z,39.5
2022-07-27T06:14:53.391Z,39.2
2022-07-27T06:20:12.066Z,40
2022-07-27T06:25:36.363Z,40.3
2022-07-27T06:30:55.101Z,40.5
2022-07-27T06:36:13.545Z,39.7
2022-07-27T06:41:31.705Z,40.7
2022-07-27T06:46:50.261Z,39.6
2022-07-27T06:52:08.666Z,40.7
2022-07-27T06:57:27.133Z,40.6
2022-07-27T07:02:45.856Z,40.6
2022-07-27T07:08:04.038Z,40.1
2022-07-27T07:13:22.483Z,40.3
2022-07-27T07:18:40.649Z,40.1
2022-07-27T07:23:58.803Z,40.6
2022-07-27T07:29:17.255Z,40.9
2022-07-27T07:34:35.487Z,39.8
2022-07-27T07:39:53.364Z,39.9
2022-07-27T07:45:11.535Z,39.9
2022-07-27T07:50:29.984Z,40.2
2022-07-27T07:55:48.645Z,40.5
2022-07-27T08:01:07.095Z,40.7
2022-07-27T08:06:25.536Z,40.2
2022-07-27T08:11:43.490Z,40.8
2022-07-27T08:17:02.209Z,40.9
2022-07-27T08:22:20.654Z,41
2022-07-27T08:27:41.282Z,40.6
2022-07-27T08:32:59.738Z,41
2022-07-27T08:38:18.175Z,41
2022-07-27T08:43:36.347Z,40.2
2022-07-27T08:48:54.902Z,40.3
2022-07-27T08:54:13.078Z,41.3
2022-07-27T08:59:31.511Z,41.1
2022-07-27T09:04:50.370Z,40.9
2022-07-27T09:10:09.102Z,41.1
2022-07-27T09:15:36.930Z,41.4
2022-07-27T09:20:55.463Z,41.6
2022-07-27T09:26:34.600Z,41.4
2022-07-27T09:31:53.238Z,41.4
2022-07-27T09:37:11.688Z,41.9
2022-07-27T09:44:28.972Z,41.5
2022-07-27T09:49:48.874Z,41.7
2022-07-27T09:55:07.061Z,42.1
2022-07-27T10:00:25.778Z,41.1
2022-07-27T10:05:44.500Z,42.1
2022-07-27T10:11:07.793Z,42.6
2022-07-27T10:16:26.504Z,42
2022-07-27T10:21:44.950Z,41.9
2022-07-27T10:27:03.671Z,41.8
2022-07-27T10:32:22.108Z,41.6
2022-07-27T10:37:39.999Z,41.8
2022-07-27T10:42:59.291Z,41.9
2022-07-27T10:48:25.021Z,42.4
2022-07-27T10:54:23.246Z,41.4
2022-07-27T11:00:19.921Z,42.5
2022-07-27T11:07:22.880Z,41.5
2022-07-27T11:12:41.707Z,41.9
2022-07-27T11:18:05.970Z,41.5
2022-07-27T11:23:54.074Z,41.9
2022-07-27T11:29:13.775Z,41.4
2022-07-27T11:34:31.874Z,41.8
2022-07-27T11:41:13.579Z,42.1
2022-07-27T11:46:42.221Z,42
2022-07-27T11:52:01.917Z,42.5
2022-07-27T11:57:20.351Z,41.9
2022-07-27T12:02:38.259Z,42.2
2022-07-27T12:07:56.965Z,41.9
2022-07-27T12:13:15.406Z,41.7
2022-07-27T12:18:33.856Z,42.3
2022-07-27T12:23:55.939Z,41.7
2022-07-27T12:29:15.053Z,42
2022-07-27T12:34:33.680Z,42.5
2022-07-27T12:39:52.128Z,42.6
2022-07-27T12:45:10.291Z,42.7
2022-07-27T12:50:28.729Z,42.1
2022-07-27T12:55:47.180Z,41.9
2022-07-27T13:01:06.352Z,41.7
2022-07-27T13:06:25.077Z,42.2
2022-07-27T13:11:48.713Z,42.4
2022-07-27T13:17:07.153Z,42.2
2022-07-27T13:22:25.317Z,42.2
2022-07-27T13:27:44.038Z,42.5
2022-07-27T13:33:02.785Z,43
2022-07-27T13:38:22.886Z,43
2022-07-27T13:43:41.321Z,42.4
2022-07-27T13:48:59.635Z,41.8
2022-07-27T13:54:18.064Z,41
2022-07-27T13:59:36.516Z,39.8
2022-07-27T14:04:54.954Z,39.2
2022-07-27T14:10:16.045Z,39.4
2022-07-27T14:15:34.205Z,38.8
2022-07-27T14:21:08.187Z,37.8
2022-07-27T14:26:26.905Z,38.6
2022-07-27T14:31:44.956Z,38.8
2022-07-27T14:37:05.445Z,38.8
2022-07-27T14:42:24.087Z,40
2022-07-27T14:47:42.813Z,39.1
2022-07-27T14:53:01.253Z,39.9
2022-07-27T14:58:19.972Z,41.9
2022-07-27T15:03:38.417Z,41
2022-07-27T15:08:56.868Z,41
2022-07-27T15:14:15.586Z,40.7
2022-07-27T15:19:34.029Z,41.4
2022-07-27T15:24:52.468Z,42.4
2022-07-27T15:30:10.629Z,41.9
2022-07-27T15:35:29.088Z,41.7
2022-07-27T15:40:47.249Z,41.6
2022-07-27T15:46:05.693Z,41.7
2022-07-27T15:51:24.127Z,41.6
2022-07-27T15:56:42.842Z,42.2
2022-07-27T16:02:01.806Z,42.1
2022-07-27T16:07:20.251Z,41.6
2022-07-27T16:12:39.217Z,41.5
2022-07-27T16:17:57.651Z,40.4
2022-07-27T16:23:22.416Z,39
2022-07-27T16:28:41.010Z,38.7
2022-07-27T16:33:59.713Z,38.4
2022-07-27T16:39:18.173Z,38.9
2022-07-27T16:44:36.315Z,39.2
2022-07-27T16:49:54.940Z,39.2
2022-07-27T16:55:13.362Z,40.3
2022-07-27T17:00:39.447Z,39.2
2022-07-27T17:06:06.937Z,39.4
2022-07-27T17:11:25.693Z,39.2
2022-07-27T17:16:52.663Z,39
2022-07-27T17:22:10.824Z,39.2
2022-07-27T17:27:29.555Z,38.5
2022-07-27T17:32:48.270Z,38.7
2022-07-27T17:38:07.902Z,37.6
2022-07-27T17:43:26.345Z,38.6
2022-07-27T17:48:44.990Z,37.3
2022-07-27T17:54:03.423Z,38.4
2022-07-27T17:59:39.566Z,37.7
2022-07-27T18:04:58.097Z,38.9
2022-07-27T18:10:16.832Z,38.7
2022-07-27T18:15:35.504Z,38.5
2022-07-27T18:20:53.911Z,39.5
2022-07-27T18:26:12.634Z,40
2022-07-27T18:31:31.061Z,40.6
2022-07-27T18:36:49.799Z,40.3
2022-07-27T18:42:08.240Z,40.5
2022-07-27T18:47:26.975Z,40.9
2022-07-27T18:52:45.400Z,40.4
2022-07-27T18:58:03.819Z,40.3
2022-07-27T19:03:27.672Z,40.2
2022-07-27T19:08:46.353Z,40.7
2022-07-27T19:14:04.809Z,39.9
2022-07-27T19:19:24.976Z,38.9
2022-07-27T19:24:43.317Z,38.4
2022-07-27T19:30:01.486Z,38.2
2022-07-27T19:35:19.923Z,37.1
2022-07-27T19:40:46.796Z,36.7
2022-07-27T19:46:05.074Z,38
2022-07-27T19:51:23.224Z,37.2
2022-07-27T19:56:41.661Z,37.9
2022-07-27T20:02:00.573Z,39.1
2022-07-27T20:07:19.080Z,39.1
2022-07-27T20:12:37.253Z,39.6
2022-07-27T20:17:55.405Z,39.2
2022-07-27T20:23:13.853Z,39.6
2022-07-27T20:28:32.295Z,39.9
2022-07-27T21:18:01.100Z,40.2
2022-07-27T21:23:19.509Z,38.8
2022-07-27T21:28:42.495Z,38.8
2022-07-27T21:34:01.675Z,39.4
2022-07-27T21:39:19.832Z,39.2
2022-07-27T21:44:38.301Z,39
2022-07-27T21:49:56.788Z,38.3
2022-07-27T21:55:23.852Z,38.5
2022-07-27T22:00:42.430Z,38.4
2022-07-27T22:06:01.173Z,38.6
2022-07-27T22:11:19.930Z,37.6
2022-07-27T22:16:38.116Z,37.8
2022-07-27T22:21:56.360Z,39
2022-07-27T22:27:14.837Z,38.9
2022-07-27T22:32:33.592Z,38.6
2022-07-27T22:37:52.090Z,38.3
2022-07-27T22:43:11.249Z,38.8
2022-07-27T22:48:30.008Z,38.3
2022-07-27T22:53:48.770Z,39
2022-07-27T22:59:07.249Z,39.1
2022-07-27T23:04:25.731Z,38.8
2022-07-27T23:09:43.939Z,39.5
2022-07-27T23:15:02.428Z,40.2
2022-07-27T23:20:20.628Z,39.8
2022-07-27T23:25:39.022Z,40.7
2022-07-27T23:30:57.495Z,40.9
2022-07-27T23:36:16.262Z,40.3
2022-07-27T23:41:34.476Z,40.1
2022-07-27T23:46:53.442Z,40.8
2022-07-27T23:52:12.206Z,40.4
2022-07-27T23:57:30.970Z,40.9
